Arklow Rogue — EIGD — position and weather

sailwx.info

Track history (hours):
 
Tides and Currents Weather Stations Pressure Air Temp Water Temp Dewpoint Dewpoint Depression Visibility Wind Speed Wind Dir Waves Ship Positions

Arklow Rogue

Last reported at 2017-Feb-24 00:12 UTC. Time now 2017-Feb-24 10:29 UTC.
Position N 49°42' W 001°01'.

Length 90 m; draft 3.4 m.

Type: Cargo ship. MMSI: 250000960.

Date/timePositionNaut miles runAvg speedWind from/ knotsBaromVisibWave heightAir tempDewpointWater temp
2017-Feb-24 00:12N 49°42' W 001°01'710.7
2017-Feb-23 23:34N 49°38' W 000°52'1010.4
2017-Feb-23 22:34N 49°32' W 000°39'10 9.9
2017-Feb-23 21:34N 49°26' W 000°26'10 9.7
2017-Feb-23 20:34N 49°20' W 000°15'4 4.0
2017-Feb-23 19:34N 49°16' W 000°15'3 3.5
2017-Feb-23 18:33N 49°14' W 000°18'0 0.0
2017-Feb-23 17:33N 49°14' W 000°18'0 0.0
2017-Feb-23 16:33N 49°14' W 000°18'0 0.0
2017-Feb-23 15:33N 49°14' W 000°18'0 0.0
2017-Feb-23 14:33N 49°14' W 000°18'0 0.0
2017-Feb-23 13:33N 49°14' W 000°18'0 0.0
2017-Feb-23 12:33N 49°14' W 000°18'0 0.0
2017-Feb-23 11:33N 49°14' W 000°18'0 0.0
2017-Feb-23 10:33N 49°14' W 000°18'0 0.0
2017-Feb-23 09:33N 49°14' W 000°18'0 0.0
2017-Feb-23 08:33N 49°14' W 000°18'0 0.0
2017-Feb-23 07:33N 49°14' W 000°18'0 0.0
2017-Feb-23 06:33N 49°14' W 000°18'0 0.0
2017-Feb-23 05:34N 49°14' W 000°18'4 3.7
2017-Feb-23 04:33N 49°17' W 000°15'3 3.0
2017-Feb-23 03:34N 49°20' W 000°14'7 6.9
2017-Feb-23 02:33N 49°26' W 000°18'7 6.6
2017-Feb-23 01:34N 49°29' W 000°27'4 3.8
2017-Feb-23 00:34N 49°32' W 000°24'5 5.4
2017-Feb-22 23:34N 49°34' W 000°17'6 6.3
2017-Feb-22 22:34N 49°41' W 000°19'8 7.7
2017-Feb-22 21:34N 49°48' W 000°18'9 9.3
2017-Feb-22 20:34N 49°56' W 000°10'7 7.1
2017-Feb-22 19:34N 50°01' W 000°03'5 5.0
2017-Feb-22 18:33N 50°05' E 000°03'4 4.0
2017-Feb-22 17:34N 50°08' E 000°07'4 4.0
2017-Feb-22 16:32N 50°10' E 000°12'36 5.9
2017-Feb-22 10:23N 50°40' E 000°44'6 6.9
2017-Feb-22 09:33N 50°44' E 000°51'8 7.6
2017-Feb-22 08:26N 50°50' E 001°00'7 8.2
2017-Feb-22 07:33N 50°55' E 001°09'8 8.3
2017-Feb-22 06:34N 51°00' E 001°19'9 8.9
2017-Feb-22 05:33N 51°06' E 001°30'10 9.8
2017-Feb-22 04:34N 51°15' E 001°37'1212.1
2017-Feb-22 03:33N 51°26' E 001°29'1212.4
2017-Feb-22 02:33N 51°29' E 001°10'1212.3
2017-Feb-22 01:33N 51°29' E 000°50'1414.0
2017-Feb-22 00:34N 51°29' E 000°28'5 5.0
2017-Feb-21 23:33N 51°27' E 000°20'0 0.0
2017-Feb-21 22:34N 51°27' E 000°20'0 0.0
2017-Feb-21 21:34N 51°27' E 000°20'0 0.0
2017-Feb-21 20:34N 51°27' E 000°20'0 0.0
2017-Feb-21 19:34N 51°27' E 000°20'0 0.0
2017-Feb-21 18:34N 51°27' E 000°20'0 0.0
2017-Feb-21 17:34N 51°27' E 000°20'0 0.0
2017-Feb-21 16:34N 51°27' E 000°20'0 0.0
2017-Feb-21 15:34N 51°27' E 000°20'0 0.0
2017-Feb-21 14:34N 51°27' E 000°20'0 0.0
2017-Feb-21 13:34N 51°27' E 000°20'0 0.0
2017-Feb-21 12:34N 51°27' E 000°20'0 0.0
2017-Feb-21 11:34N 51°27' E 000°20'0 0.0
2017-Feb-21 10:34N 51°27' E 000°20'0 0.0
2017-Feb-21 09:34N 51°27' E 000°20'0 0.0
2017-Feb-21 08:34N 51°27' E 000°20'0 0.0
2017-Feb-21 07:34N 51°27' E 000°20'0 0.0
2017-Feb-21 06:34N 51°27' E 000°20'0 0.0
2017-Feb-21 05:34N 51°27' E 000°20'0 0.0
2017-Feb-21 04:34N 51°27' E 000°20'0 0.0
2017-Feb-21 03:34N 51°27' E 000°20'0 0.0
2017-Feb-21 02:34N 51°27' E 000°20'0 0.0
2017-Feb-21 01:33N 51°27' E 000°20'0 0.0
2017-Feb-21 00:34N 51°27' E 000°20'0 0.0
2017-Feb-20 23:34N 51°27' E 000°20'0 0.0
2017-Feb-20 22:34N 51°27' E 000°20'0 0.0
2017-Feb-20 21:34N 51°27' E 000°20'0 0.0
2017-Feb-20 20:34N 51°27' E 000°20'0 0.0
2017-Feb-20 19:34N 51°27' E 000°20'0 0.0
2017-Feb-20 18:33N 51°27' E 000°20'0 0.0
2017-Feb-20 17:34N 51°27' E 000°20'0 0.0
2017-Feb-20 16:34N 51°27' E 000°20'0 0.0
2017-Feb-20 15:33N 51°27' E 000°20'0 0.0
2017-Feb-20 14:34N 51°27' E 000°20'0 0.0
2017-Feb-20 13:34N 51°27' E 000°20'0 0.0
2017-Feb-20 12:34N 51°27' E 000°20'0 0.0
2017-Feb-20 11:34N 51°27' E 000°20'0 0.0
2017-Feb-20 10:33N 51°27' E 000°20'0 0.0
2017-Feb-20 09:34N 51°27' E 000°20'0 0.0
2017-Feb-20 08:34N 51°27' E 000°20'0 0.0
2017-Feb-20 07:34N 51°27' E 000°20'0 0.0
2017-Feb-20 06:34N 51°27' E 000°20'0 0.0
2017-Feb-20 05:34N 51°27' E 000°20'0 0.0
2017-Feb-20 04:34N 51°27' E 000°20'4 4.1
2017-Feb-20 03:34N 51°28' E 000°27'1110.7
2017-Feb-20 02:34N 51°30' E 000°43'1010.4
2017-Feb-20 01:33N 51°30' E 001°00'8 8.1
2017-Feb-20 00:34N 51°29' E 001°13'9 8.0
2017-Feb-19 23:26N 51°28' E 001°27'7 7.9
2017-Feb-19 22:33N 51°23' E 001°34'1010.3
2017-Feb-19 21:34N 51°13' E 001°37'9 8.9
2017-Feb-19 20:33N 51°04' E 001°36'1212.0
2017-Feb-19 19:33N 50°54' E 001°26'4511.1
2017-Feb-19 15:29N 50°26' E 000°30'1212.4
2017-Feb-19 14:29N 50°23' E 000°11'1212.7
2017-Feb-19 13:30N 50°20' W 000°08'2612.6
2017-Feb-19 11:28N 50°15' W 000°48'1211.8
2017-Feb-19 10:26N 50°13' W 001°06'1010.9
2017-Feb-19 09:32N 50°12' W 001°22'30 9.6
2017-Feb-19 06:25N 50°11' W 002°08'9 9.9
2017-Feb-19 05:30N 50°11' W 002°22'1110.6
2017-Feb-19 04:26N 50°11' W 002°40'1011.3
2017-Feb-19 03:34N 50°11' W 002°56'1211.5
2017-Feb-19 02:34N 50°09' W 003°13'1211.8
2017-Feb-19 01:33N 50°07' W 003°31'1211.9
2017-Feb-19 00:33N 50°05' W 003°49'1211.7
2017-Feb-18 23:32N 50°03' W 004°08'1111.6
2017-Feb-18 22:33N 50°01' W 004°25'1111.5
2017-Feb-18 21:34N 49°58' W 004°43'1211.4
2017-Feb-18 20:32N 49°56' W 005°01'2411.4
2017-Feb-18 18:27N 49°55' W 005°37'1111.2
2017-Feb-18 17:30N 49°55' W 005°54'23310.0
2017-Feb-17 18:15N 53°48' W 005°57'710.5
2017-Feb-17 17:33N 53°55' W 006°00'8 8.2
2017-Feb-17 16:32N 54°02' W 006°08'0 0.0
2017-Feb-17 13:30N 54°02' W 006°08'0 0.0
2017-Feb-17 12:30N 54°02' W 006°08'0 0.0
2017-Feb-17 11:21N 54°02' W 006°08'0 0.0
2017-Feb-17 10:33N 54°02' W 006°08'0 0.0
2017-Feb-17 09:33N 54°02' W 006°08'0 0.0
2017-Feb-17 08:06N 54°02' W 006°08'0 0.0
2017-Feb-17 07:27N 54°02' W 006°08'0 0.0
2017-Feb-17 06:27N 54°02' W 006°08'0 0.0
2017-Feb-17 05:27N 54°02' W 006°08'0 0.0
2017-Feb-17 04:33N 54°02' W 006°08'0 0.0
2017-Feb-17 03:33N 54°02' W 006°08'0 0.0
2017-Feb-17 02:27N 54°02' W 006°08'0 0.0
2017-Feb-17 01:27N 54°02' W 006°08'0 0.0
2017-Feb-17 00:30N 54°02' W 006°08'0 0.0
2017-Feb-16 23:21N 54°02' W 006°08'0 0.0
2017-Feb-16 22:33N 54°02' W 006°08'0 0.0
2017-Feb-16 18:21N 54°02' W 006°08'0 0.0
2017-Feb-16 17:30N 54°02' W 006°08'0 0.0
2017-Feb-16 15:33N 54°02' W 006°08'0 0.0
2017-Feb-16 14:30N 54°02' W 006°08'0 0.0
2017-Feb-16 13:33N 54°02' W 006°08'0 0.0
2017-Feb-16 12:30N 54°02' W 006°08'0 0.0
2017-Feb-16 11:33N 54°02' W 006°08'0 0.0
2017-Feb-16 09:21N 54°02' W 006°08'0 0.0
2017-Feb-16 08:27N 54°02' W 006°08'0 0.0
2017-Feb-16 07:27N 54°02' W 006°08'0 0.0
2017-Feb-16 06:30N 54°02' W 006°08'0 0.0
2017-Feb-16 05:33N 54°02' W 006°08'0 0.0
2017-Feb-16 04:15N 54°02' W 006°08'0 0.0
2017-Feb-16 03:33N 54°02' W 006°08'0 0.0
2017-Feb-16 02:30N 54°02' W 006°08'0 0.0
2017-Feb-16 01:33N 54°02' W 006°08'0 0.0
2017-Feb-16 00:24N 54°02' W 006°08'0 0.0
2017-Feb-15 23:09N 54°02' W 006°08'0 0.0
2017-Feb-15 22:24N 54°02' W 006°08'0 0.0
2017-Feb-15 21:30N 54°02' W 006°08'0 0.0
2017-Feb-15 20:21N 54°02' W 006°08'0 0.0
2017-Feb-15 18:18N 54°02' W 006°08'0 0.0
2017-Feb-15 17:27N 54°02' W 006°08'0 0.0
2017-Feb-15 16:09N 54°02' W 006°08'0 0.0
2017-Feb-15 15:27N 54°02' W 006°08'0 0.0
2017-Feb-15 14:33N 54°02' W 006°08'0 0.0
2017-Feb-15 13:33N 54°02' W 006°08'5 4.6
2017-Feb-15 12:31N 53°59' W 006°01'0 0.0
2017-Feb-15 06:33N 53°59' W 006°01'0 0.0
2017-Feb-15 04:21N 53°59' W 006°01'76 8.4
2017-Feb-14 19:20N 53°37' W 003°59'1113.6
2017-Feb-14 18:33N 53°34' W 003°42'1414.0
2017-Feb-14 17:33N 53°32' W 003°19'1212.0
2017-Feb-14 16:33N 53°26' W 003°01'1 0.6
2017-Feb-14 15:30N 53°26' W 003°00'0 0.2
2017-Feb-14 14:33N 53°26' W 002°60'0 0.0
2017-Feb-14 13:33N 53°26' W 002°60'0 0.0
2017-Feb-14 12:33N 53°26' W 002°60'0 0.0
2017-Feb-14 11:30N 53°26' W 002°60'0 0.0
2017-Feb-14 10:33N 53°26' W 002°60'0 0.0
2017-Feb-14 09:33N 53°26' W 002°60'0 0.0
2017-Feb-14 08:33N 53°26' W 002°60'0 0.0
2017-Feb-14 07:33N 53°26' W 002°60'0 0.0
2017-Feb-14 06:33N 53°26' W 002°60'0 0.0
2017-Feb-14 05:33N 53°26' W 002°60'0 0.0
2017-Feb-14 04:33N 53°26' W 002°60'0 0.0
2017-Feb-14 03:33N 53°26' W 002°60'0 0.0
2017-Feb-14 02:33N 53°26' W 002°60'0 0.0
2017-Feb-14 01:33N 53°26' W 002°60'0 0.0
2017-Feb-14 00:33N 53°26' W 002°60'  
Track history (hours):
 
Tides and Currents Weather Stations Pressure Air Temp Water Temp Dewpoint Dewpoint Depression Visibility Wind Speed Wind Dir Waves Ship Positions

Arklow Rogue

Last reported at 2017-Feb-24 00:12 UTC. Time now 2017-Feb-24 10:29 UTC.
Position N 49°42' W 001°01'.

Length 90 m; draft 3.4 m.

Type: Cargo ship. MMSI: 250000960.

Date/timePositionNaut miles runAvg speedWind from/ knotsBaromVisibWave heightAir tempDewpointWater temp
2017-Feb-24 00:12N 49°42' W 001°01'710.7
2017-Feb-23 23:34N 49°38' W 000°52'1010.4
2017-Feb-23 22:34N 49°32' W 000°39'10 9.9
2017-Feb-23 21:34N 49°26' W 000°26'10 9.7
2017-Feb-23 20:34N 49°20' W 000°15'4 4.0
2017-Feb-23 19:34N 49°16' W 000°15'3 3.5
2017-Feb-23 18:33N 49°14' W 000°18'0 0.0
2017-Feb-23 17:33N 49°14' W 000°18'0 0.0
2017-Feb-23 16:33N 49°14' W 000°18'0 0.0
2017-Feb-23 15:33N 49°14' W 000°18'0 0.0
2017-Feb-23 14:33N 49°14' W 000°18'0 0.0
2017-Feb-23 13:33N 49°14' W 000°18'0 0.0
2017-Feb-23 12:33N 49°14' W 000°18'0 0.0
2017-Feb-23 11:33N 49°14' W 000°18'0 0.0
2017-Feb-23 10:33N 49°14' W 000°18'0 0.0
2017-Feb-23 09:33N 49°14' W 000°18'0 0.0
2017-Feb-23 08:33N 49°14' W 000°18'0 0.0
2017-Feb-23 07:33N 49°14' W 000°18'0 0.0
2017-Feb-23 06:33N 49°14' W 000°18'0 0.0
2017-Feb-23 05:34N 49°14' W 000°18'4 3.7
2017-Feb-23 04:33N 49°17' W 000°15'3 3.0
2017-Feb-23 03:34N 49°20' W 000°14'7 6.9
2017-Feb-23 02:33N 49°26' W 000°18'7 6.6
2017-Feb-23 01:34N 49°29' W 000°27'4 3.8
2017-Feb-23 00:34N 49°32' W 000°24'5 5.4
2017-Feb-22 23:34N 49°34' W 000°17'6 6.3
2017-Feb-22 22:34N 49°41' W 000°19'8 7.7
2017-Feb-22 21:34N 49°48' W 000°18'9 9.3
2017-Feb-22 20:34N 49°56' W 000°10'7 7.1
2017-Feb-22 19:34N 50°01' W 000°03'5 5.0
2017-Feb-22 18:33N 50°05' E 000°03'4 4.0
2017-Feb-22 17:34N 50°08' E 000°07'4 4.0
2017-Feb-22 16:32N 50°10' E 000°12'36 5.9
2017-Feb-22 10:23N 50°40' E 000°44'6 6.9
2017-Feb-22 09:33N 50°44' E 000°51'8 7.6
2017-Feb-22 08:26N 50°50' E 001°00'7 8.2
2017-Feb-22 07:33N 50°55' E 001°09'8 8.3
2017-Feb-22 06:34N 51°00' E 001°19'9 8.9
2017-Feb-22 05:33N 51°06' E 001°30'10 9.8
2017-Feb-22 04:34N 51°15' E 001°37'1212.1
2017-Feb-22 03:33N 51°26' E 001°29'1212.4
2017-Feb-22 02:33N 51°29' E 001°10'1212.3
2017-Feb-22 01:33N 51°29' E 000°50'1414.0
2017-Feb-22 00:34N 51°29' E 000°28'5 5.0
2017-Feb-21 23:33N 51°27' E 000°20'0 0.0
2017-Feb-21 22:34N 51°27' E 000°20'0 0.0
2017-Feb-21 21:34N 51°27' E 000°20'0 0.0
2017-Feb-21 20:34N 51°27' E 000°20'0 0.0
2017-Feb-21 19:34N 51°27' E 000°20'0 0.0
2017-Feb-21 18:34N 51°27' E 000°20'0 0.0
2017-Feb-21 17:34N 51°27' E 000°20'0 0.0
2017-Feb-21 16:34N 51°27' E 000°20'0 0.0
2017-Feb-21 15:34N 51°27' E 000°20'0 0.0
2017-Feb-21 14:34N 51°27' E 000°20'0 0.0
2017-Feb-21 13:34N 51°27' E 000°20'0 0.0
2017-Feb-21 12:34N 51°27' E 000°20'0 0.0
2017-Feb-21 11:34N 51°27' E 000°20'0 0.0
2017-Feb-21 10:34N 51°27' E 000°20'0 0.0
2017-Feb-21 09:34N 51°27' E 000°20'0 0.0
2017-Feb-21 08:34N 51°27' E 000°20'0 0.0
2017-Feb-21 07:34N 51°27' E 000°20'0 0.0
2017-Feb-21 06:34N 51°27' E 000°20'0 0.0
2017-Feb-21 05:34N 51°27' E 000°20'0 0.0
2017-Feb-21 04:34N 51°27' E 000°20'0 0.0
2017-Feb-21 03:34N 51°27' E 000°20'0 0.0
2017-Feb-21 02:34N 51°27' E 000°20'0 0.0
2017-Feb-21 01:33N 51°27' E 000°20'0 0.0
2017-Feb-21 00:34N 51°27' E 000°20'0 0.0
2017-Feb-20 23:34N 51°27' E 000°20'0 0.0
2017-Feb-20 22:34N 51°27' E 000°20'0 0.0
2017-Feb-20 21:34N 51°27' E 000°20'0 0.0
2017-Feb-20 20:34N 51°27' E 000°20'0 0.0
2017-Feb-20 19:34N 51°27' E 000°20'0 0.0
2017-Feb-20 18:33N 51°27' E 000°20'0 0.0
2017-Feb-20 17:34N 51°27' E 000°20'0 0.0
2017-Feb-20 16:34N 51°27' E 000°20'0 0.0
2017-Feb-20 15:33N 51°27' E 000°20'0 0.0
2017-Feb-20 14:34N 51°27' E 000°20'0 0.0
2017-Feb-20 13:34N 51°27' E 000°20'0 0.0
2017-Feb-20 12:34N 51°27' E 000°20'0 0.0
2017-Feb-20 11:34N 51°27' E 000°20'0 0.0
2017-Feb-20 10:33N 51°27' E 000°20'0 0.0
2017-Feb-20 09:34N 51°27' E 000°20'0 0.0
2017-Feb-20 08:34N 51°27' E 000°20'0 0.0
2017-Feb-20 07:34N 51°27' E 000°20'0 0.0
2017-Feb-20 06:34N 51°27' E 000°20'0 0.0
2017-Feb-20 05:34N 51°27' E 000°20'0 0.0
2017-Feb-20 04:34N 51°27' E 000°20'4 4.1
2017-Feb-20 03:34N 51°28' E 000°27'1110.7
2017-Feb-20 02:34N 51°30' E 000°43'1010.4
2017-Feb-20 01:33N 51°30' E 001°00'8 8.1
2017-Feb-20 00:34N 51°29' E 001°13'9 8.0
2017-Feb-19 23:26N 51°28' E 001°27'7 7.9
2017-Feb-19 22:33N 51°23' E 001°34'1010.3
2017-Feb-19 21:34N 51°13' E 001°37'9 8.9
2017-Feb-19 20:33N 51°04' E 001°36'1212.0
2017-Feb-19 19:33N 50°54' E 001°26'4511.1
2017-Feb-19 15:29N 50°26' E 000°30'1212.4
2017-Feb-19 14:29N 50°23' E 000°11'1212.7
2017-Feb-19 13:30N 50°20' W 000°08'2612.6
2017-Feb-19 11:28N 50°15' W 000°48'1211.8
2017-Feb-19 10:26N 50°13' W 001°06'1010.9
2017-Feb-19 09:32N 50°12' W 001°22'30 9.6
2017-Feb-19 06:25N 50°11' W 002°08'9 9.9
2017-Feb-19 05:30N 50°11' W 002°22'1110.6
2017-Feb-19 04:26N 50°11' W 002°40'1011.3
2017-Feb-19 03:34N 50°11' W 002°56'1211.5
2017-Feb-19 02:34N 50°09' W 003°13'1211.8
2017-Feb-19 01:33N 50°07' W 003°31'1211.9
2017-Feb-19 00:33N 50°05' W 003°49'1211.7
2017-Feb-18 23:32N 50°03' W 004°08'1111.6
2017-Feb-18 22:33N 50°01' W 004°25'1111.5
2017-Feb-18 21:34N 49°58' W 004°43'1211.4
2017-Feb-18 20:32N 49°56' W 005°01'2411.4
2017-Feb-18 18:27N 49°55' W 005°37'1111.2
2017-Feb-18 17:30N 49°55' W 005°54'23310.0
2017-Feb-17 18:15N 53°48' W 005°57'710.5
2017-Feb-17 17:33N 53°55' W 006°00'8 8.2
2017-Feb-17 16:32N 54°02' W 006°08'0 0.0
2017-Feb-17 13:30N 54°02' W 006°08'0 0.0
2017-Feb-17 12:30N 54°02' W 006°08'0 0.0
2017-Feb-17 11:21N 54°02' W 006°08'0 0.0
2017-Feb-17 10:33N 54°02' W 006°08'0 0.0
2017-Feb-17 09:33N 54°02' W 006°08'0 0.0
2017-Feb-17 08:06N 54°02' W 006°08'0 0.0
2017-Feb-17 07:27N 54°02' W 006°08'0 0.0
2017-Feb-17 06:27N 54°02' W 006°08'0 0.0
2017-Feb-17 05:27N 54°02' W 006°08'0 0.0
2017-Feb-17 04:33N 54°02' W 006°08'0 0.0
2017-Feb-17 03:33N 54°02' W 006°08'0 0.0
2017-Feb-17 02:27N 54°02' W 006°08'0 0.0
2017-Feb-17 01:27N 54°02' W 006°08'0 0.0
2017-Feb-17 00:30N 54°02' W 006°08'0 0.0
2017-Feb-16 23:21N 54°02' W 006°08'0 0.0
2017-Feb-16 22:33N 54°02' W 006°08'0 0.0
2017-Feb-16 18:21N 54°02' W 006°08'0 0.0
2017-Feb-16 17:30N 54°02' W 006°08'0 0.0
2017-Feb-16 15:33N 54°02' W 006°08'0 0.0
2017-Feb-16 14:30N 54°02' W 006°08'0 0.0
2017-Feb-16 13:33N 54°02' W 006°08'0 0.0
2017-Feb-16 12:30N 54°02' W 006°08'0 0.0
2017-Feb-16 11:33N 54°02' W 006°08'0 0.0
2017-Feb-16 09:21N 54°02' W 006°08'0 0.0
2017-Feb-16 08:27N 54°02' W 006°08'0 0.0
2017-Feb-16 07:27N 54°02' W 006°08'0 0.0
2017-Feb-16 06:30N 54°02' W 006°08'0 0.0
2017-Feb-16 05:33N 54°02' W 006°08'0 0.0
2017-Feb-16 04:15N 54°02' W 006°08'0 0.0
2017-Feb-16 03:33N 54°02' W 006°08'0 0.0
2017-Feb-16 02:30N 54°02' W 006°08'0 0.0
2017-Feb-16 01:33N 54°02' W 006°08'0 0.0
2017-Feb-16 00:24N 54°02' W 006°08'0 0.0
2017-Feb-15 23:09N 54°02' W 006°08'0 0.0
2017-Feb-15 22:24N 54°02' W 006°08'0 0.0
2017-Feb-15 21:30N 54°02' W 006°08'0 0.0
2017-Feb-15 20:21N 54°02' W 006°08'0 0.0
2017-Feb-15 18:18N 54°02' W 006°08'0 0.0
2017-Feb-15 17:27N 54°02' W 006°08'0 0.0
2017-Feb-15 16:09N 54°02' W 006°08'0 0.0
2017-Feb-15 15:27N 54°02' W 006°08'0 0.0
2017-Feb-15 14:33N 54°02' W 006°08'0 0.0
2017-Feb-15 13:33N 54°02' W 006°08'5 4.6
2017-Feb-15 12:31N 53°59' W 006°01'0 0.0
2017-Feb-15 06:33N 53°59' W 006°01'0 0.0
2017-Feb-15 04:21N 53°59' W 006°01'76 8.4
2017-Feb-14 19:20N 53°37' W 003°59'1113.6
2017-Feb-14 18:33N 53°34' W 003°42'1414.0
2017-Feb-14 17:33N 53°32' W 003°19'1212.0
2017-Feb-14 16:33N 53°26' W 003°01'1 0.6
2017-Feb-14 15:30N 53°26' W 003°00'0 0.2
2017-Feb-14 14:33N 53°26' W 002°60'0 0.0
2017-Feb-14 13:33N 53°26' W 002°60'0 0.0
2017-Feb-14 12:33N 53°26' W 002°60'0 0.0
2017-Feb-14 11:30N 53°26' W 002°60'0 0.0
2017-Feb-14 10:33N 53°26' W 002°60'0 0.0
2017-Feb-14 09:33N 53°26' W 002°60'0 0.0
2017-Feb-14 08:33N 53°26' W 002°60'0 0.0
2017-Feb-14 07:33N 53°26' W 002°60'0 0.0
2017-Feb-14 06:33N 53°26' W 002°60'0 0.0
2017-Feb-14 05:33N 53°26' W 002°60'0 0.0
2017-Feb-14 04:33N 53°26' W 002°60'0 0.0
2017-Feb-14 03:33N 53°26' W 002°60'0 0.0
2017-Feb-14 02:33N 53°26' W 002°60'0 0.0
2017-Feb-14 01:33N 53°26' W 002°60'0 0.0
2017-Feb-14 00:33N 53°26' W 002°60'  

Dump ship's entire track history